createdAt,value
2022-09-01T00:00:01.294Z,10.75
2022-09-01T00:02:50.925Z,10.97
2022-09-01T00:05:19.197Z,10.98
2022-09-01T00:07:46.775Z,10.88
2022-09-01T00:10:14.207Z,10.81
2022-09-01T00:12:41.739Z,10.88
2022-09-01T00:15:10.805Z,11.11
2022-09-01T00:17:38.147Z,11.06
2022-09-01T00:20:06.423Z,11.09
2022-09-01T00:22:34.016Z,11.01
2022-09-01T00:25:02.177Z,11.23
2022-09-01T00:27:30.809Z,11.05
2022-09-01T00:30:00.334Z,11.00
2022-09-01T00:32:28.320Z,10.85
2022-09-01T00:34:55.682Z,11.01
2022-09-01T00:37:23.234Z,10.98
2022-09-01T00:39:50.500Z,11.02
2022-09-01T00:42:17.801Z,11.10
2022-09-01T00:44:45.181Z,11.21
2022-09-01T00:47:15.062Z,11.39
2022-09-01T00:49:47.215Z,11.71
2022-09-01T00:52:34.150Z,11.91
2022-09-01T00:55:09.911Z,11.95
2022-09-01T00:57:37.658Z,11.97
2022-09-01T01:00:21.057Z,12.13
2022-09-01T01:02:55.967Z,12.12
2022-09-01T01:05:33.182Z,12.06
2022-09-01T01:08:02.797Z,12.00
2022-09-01T01:10:35.284Z,11.90
2022-09-01T01:13:08.983Z,11.94
2022-09-01T01:15:37.049Z,11.82
2022-09-01T01:18:04.707Z,11.78
2022-09-01T01:20:52.138Z,11.71
2022-09-01T01:23:37.618Z,11.75
2022-09-01T01:26:06.969Z,11.72
2022-09-01T01:28:37.256Z,11.65
2022-09-01T01:31:18.500Z,11.57
2022-09-01T01:33:51.853Z,11.54
2022-09-01T01:36:32.637Z,11.56
2022-09-01T01:39:12.679Z,11.66
2022-09-01T01:41:45.343Z,11.62
2022-09-01T01:44:15.469Z,11.74
2022-09-01T01:46:47.687Z,11.78
2022-09-01T01:49:20.795Z,11.69
2022-09-01T01:51:56.285Z,11.71
2022-09-01T01:54:32.325Z,11.68
2022-09-01T01:57:00.944Z,11.68
2022-09-01T01:59:29.712Z,11.72
2022-09-01T02:01:58.374Z,11.85
2022-09-01T02:04:26.344Z,11.88
2022-09-01T02:06:55.941Z,11.89
2022-09-01T02:09:25.066Z,11.95
2022-09-01T02:11:57.357Z,12.02
2022-09-01T02:14:25.250Z,12.00
2022-09-01T02:16:56.135Z,11.88
2022-09-01T02:19:23.783Z,11.78
2022-09-01T02:21:56.374Z,11.66
2022-09-01T02:24:29.422Z,11.68
2022-09-01T02:26:56.885Z,11.64
2022-09-01T02:29:29.563Z,11.51
2022-09-01T02:31:57.670Z,11.53
2022-09-01T02:34:29.049Z,11.51
2022-09-01T02:36:57.774Z,11.42
2022-09-01T02:39:33.758Z,11.40
2022-09-01T02:42:02.019Z,11.51
2022-09-01T02:44:32.229Z,11.52
2022-09-01T02:47:01.824Z,11.62
2022-09-01T02:49:30.007Z,11.64
2022-09-01T02:52:01.745Z,11.58
2022-09-01T02:54:32.647Z,11.66
2022-09-01T02:57:01.138Z,11.82
2022-09-01T02:59:30.540Z,11.65
2022-09-01T03:02:01.450Z,11.60
2022-09-01T03:04:29.979Z,11.76
2022-09-01T03:06:58.993Z,12.05
2022-09-01T03:09:26.649Z,11.82
2022-09-01T03:11:55.020Z,11.78
2022-09-01T03:14:24.855Z,11.69
2022-09-01T03:16:52.716Z,11.66
2022-09-01T03:19:20.425Z,11.68
2022-09-01T03:21:48.810Z,11.95
2022-09-01T03:24:22.551Z,11.92
2022-09-01T03:26:51.707Z,11.90
2022-09-01T03:29:20.067Z,11.84
2022-09-01T03:31:48.430Z,11.93
2022-09-01T03:34:17.580Z,11.99
2022-09-01T03:36:50.978Z,11.94
2022-09-01T03:39:25.062Z,11.98
2022-09-01T03:41:52.479Z,11.90
2022-09-01T03:44:19.949Z,11.99
2022-09-01T03:46:47.345Z,12.00
2022-09-01T03:49:15.704Z,12.06
2022-09-01T03:51:45.233Z,12.06
2022-09-01T03:54:13.219Z,12.09
2022-09-01T03:56:43.171Z,12.10
2022-09-01T03:59:19.623Z,12.06
2022-09-01T04:01:48.491Z,12.00
2022-09-01T04:04:16.757Z,12.02
2022-09-01T04:06:46.311Z,11.96
2022-09-01T04:09:14.940Z,12.05
2022-09-01T04:11:47.007Z,12.05
2022-09-01T04:14:16.227Z,12.04
2022-09-01T04:17:03.383Z,12.12
2022-09-01T04:19:37.021Z,12.19
2022-09-01T04:22:05.972Z,12.21
2022-09-01T04:24:45.104Z,12.23
2022-09-01T04:27:13.794Z,12.22
2022-09-01T04:29:41.927Z,12.49
2022-09-01T04:32:13.206Z,12.51
2022-09-01T04:34:43.839Z,12.41
2022-09-01T04:37:19.092Z,12.37
2022-09-01T04:39:56.303Z,12.34
2022-09-01T04:42:27.298Z,12.37
2022-09-01T04:44:57.658Z,12.47
2022-09-01T04:47:35.631Z,12.61
2022-09-01T04:50:14.344Z,12.63
2022-09-01T04:52:45.562Z,12.73
2022-09-01T04:55:28.792Z,13.00
2022-09-01T04:57:58.504Z,12.88
2022-09-01T05:00:32.405Z,12.86
2022-09-01T05:03:04.576Z,12.68
2022-09-01T05:05:55.379Z,12.72
2022-09-01T05:08:24.691Z,12.96
2022-09-01T05:10:56.951Z,13.04
2022-09-01T05:13:51.111Z,12.99
2022-09-01T05:16:25.129Z,12.93
2022-09-01T05:18:57.191Z,13.09
2022-09-01T05:21:29.836Z,13.26
2022-09-01T05:24:00.791Z,13.56
2022-09-01T05:26:31.700Z,13.86
2022-09-01T05:29:02.569Z,14.57
2022-09-01T05:31:35.102Z,14.70
2022-09-01T05:34:03.369Z,14.55
2022-09-01T05:36:34.306Z,14.34
2022-09-01T05:39:05.027Z,14.36
2022-09-01T05:41:35.897Z,14.58
2022-09-01T05:44:08.165Z,14.82
2022-09-01T05:46:40.045Z,14.92
2022-09-01T05:49:14.733Z,15.25
2022-09-01T05:51:45.869Z,15.72
2022-09-01T05:54:15.055Z,16.78
2022-09-01T05:56:44.748Z,18.74
2022-09-01T05:59:25.592Z,18.99
2022-09-01T06:01:58.028Z,18.38
2022-09-01T06:04:27.890Z,22.37
2022-09-01T06:07:06.079Z,25.87
2022-09-01T06:09:41.727Z,24.16
2022-09-01T06:12:18.544Z,25.72
2022-09-01T06:14:48.564Z,27.80
2022-09-01T06:17:19.653Z,27.39
2022-09-01T06:19:48.183Z,27.65
2022-09-01T06:22:17.153Z,29.70
2022-09-01T06:24:46.268Z,31.79
2022-09-01T06:27:18.295Z,32.81
2022-09-01T06:29:45.636Z,32.08
2022-09-01T06:32:13.259Z,31.71
2022-09-01T06:34:44.591Z,28.27
2022-09-01T06:37:13.435Z,25.52
2022-09-01T06:39:44.182Z,24.03
2022-09-01T06:42:14.113Z,22.53
2022-09-01T06:44:48.780Z,21.09
2022-09-01T06:47:16.171Z,19.35
2022-09-01T06:49:43.653Z,19.30
2022-09-01T06:52:16.510Z,22.69
2022-09-01T06:54:44.307Z,24.85
2022-09-01T07:00:00.396Z,26.65
2022-09-01T07:02:33.732Z,26.13
2022-09-01T07:08:13.598Z,24.24
2022-09-01T07:14:15.063Z,24.07
2022-09-01T07:16:38.496Z,24.46
2022-09-01T07:19:16.213Z,23.45
2022-09-01T07:24:46.201Z,23.34
2022-09-01T07:27:51.293Z,25.51
2022-09-01T07:30:24.184Z,24.01
2022-09-01T07:45:26.642Z,31.15
2022-09-01T07:48:03.504Z,28.18
2022-09-01T07:50:41.350Z,25.19
2022-09-01T07:53:31.501Z,21.93
2022-09-01T07:56:10.371Z,20.81
2022-09-01T07:58:43.050Z,20.83
2022-09-01T08:01:20.468Z,25.19
2022-09-01T08:03:58.851Z,28.71
2022-09-01T08:06:28.566Z,28.97
2022-09-01T08:09:00.865Z,30.20
2022-09-01T08:12:00.768Z,32.17
2022-09-01T08:14:20.172Z,31.98
2022-09-01T08:16:52.207Z,32.16
2022-09-01T08:19:20.519Z,28.87
2022-09-01T08:22:14.688Z,30.68
2022-09-01T08:24:54.194Z,30.62
2022-09-01T08:27:22.898Z,28.80
2022-09-01T08:29:50.156Z,29.07
2022-09-01T08:32:17.417Z,28.20
2022-09-01T08:34:45.223Z,26.98
2022-09-01T08:37:13.495Z,27.57
2022-09-01T08:39:42.578Z,28.90
2022-09-01T08:42:16.687Z,27.20
2022-09-01T08:44:47.903Z,27.23
2022-09-01T08:47:28.856Z,24.11
2022-09-01T08:50:00.823Z,22.37
2022-09-01T08:53:10.586Z,22.57
2022-09-01T08:55:45.305Z,25.12
2022-09-01T08:58:18.060Z,26.03
2022-09-01T09:01:37.095Z,22.70
2022-09-01T09:04:23.972Z,23.54
2022-09-01T09:06:54.973Z,25.84
2022-09-01T09:09:41.474Z,23.92
2022-09-01T09:12:51.151Z,24.88
2022-09-01T09:15:33.959Z,26.32
2022-09-01T09:18:20.251Z,24.68
2022-09-01T09:21:16.385Z,24.59
2022-09-01T09:23:48.688Z,21.08
2022-09-01T09:26:22.326Z,19.61
2022-09-01T09:28:50.156Z,19.15
2022-09-01T09:31:38.698Z,19.86
2022-09-01T09:34:18.810Z,19.73
2022-09-01T09:36:53.902Z,19.28
2022-09-01T09:39:23.352Z,19.63
2022-09-01T09:42:09.740Z,19.16
2022-09-01T09:44:57.662Z,20.75
2022-09-01T09:47:44.376Z,20.48
2022-09-01T09:50:20.967Z,19.79
2022-09-01T09:52:49.909Z,18.84
2022-09-01T09:55:25.467Z,18.06
2022-09-01T09:57:59.642Z,17.69
2022-09-01T10:00:34.610Z,17.60
2022-09-01T10:03:08.845Z,17.34
2022-09-01T10:05:48.487Z,17.49
2022-09-01T10:08:28.406Z,17.73
2022-09-01T10:10:57.475Z,17.66
2022-09-01T10:13:32.608Z,17.18
2022-09-01T10:16:05.486Z,17.34
2022-09-01T10:18:42.163Z,17.27
2022-09-01T10:21:17.208Z,17.28
2022-09-01T10:23:45.014Z,17.32
2022-09-01T10:26:27.276Z,17.59
2022-09-01T10:29:06.639Z,17.85
2022-09-01T10:31:35.106Z,18.43
2022-09-01T10:34:05.838Z,19.77
2022-09-01T10:36:37.400Z,22.05
2022-09-01T10:39:10.363Z,24.06
2022-09-01T10:41:43.690Z,24.47
2022-09-01T10:44:23.801Z,25.18
2022-09-01T10:46:52.415Z,25.82
2022-09-01T10:49:46.519Z,25.45
2022-09-01T10:52:43.471Z,23.42
2022-09-01T10:55:24.889Z,23.63
2022-09-01T10:58:09.229Z,23.65
2022-09-01T11:03:57.686Z,22.37
2022-09-01T11:06:42.380Z,22.93
2022-09-01T11:09:30.197Z,23.15
2022-09-01T11:12:10.464Z,23.03
2022-09-01T11:14:52.932Z,22.15
2022-09-01T11:17:25.904Z,21.37
2022-09-01T11:20:11.483Z,20.17
2022-09-01T11:22:59.177Z,19.15
2022-09-01T11:26:19.127Z,18.59
2022-09-01T11:28:39.966Z,18.29
2022-09-01T11:31:08.955Z,18.36
2022-09-01T11:33:53.152Z,18.22
2022-09-01T11:36:28.329Z,18.37
2022-09-01T11:39:09.706Z,18.40
2022-09-01T11:41:39.818Z,18.21
2022-09-01T11:44:32.953Z,17.87
2022-09-01T11:47:10.777Z,17.89
2022-09-01T11:49:48.809Z,18.17
2022-09-01T11:52:19.541Z,18.29
2022-09-01T11:54:46.910Z,18.32
2022-09-01T11:57:38.256Z,18.11
2022-09-01T12:00:12.028Z,17.79
2022-09-01T12:02:51.519Z,17.69
2022-09-01T12:05:27.097Z,17.28
2022-09-01T12:07:55.185Z,17.07
2022-09-01T12:10:38.582Z,16.89
2022-09-01T12:13:24.086Z,17.02
2022-09-01T12:16:17.971Z,17.12
2022-09-01T12:18:49.062Z,17.30
2022-09-01T12:21:29.084Z,17.50
2022-09-01T12:24:20.846Z,17.36
2022-09-01T12:26:51.843Z,17.19
2022-09-01T12:29:19.566Z,17.14
2022-09-01T12:31:50.493Z,17.02
2022-09-01T12:34:33.422Z,16.91
2022-09-01T12:37:14.752Z,16.96
2022-09-01T12:39:45.718Z,17.06
2022-09-01T12:42:25.988Z,16.98
2022-09-01T12:45:05.108Z,16.81
2022-09-01T12:47:38.678Z,16.64
2022-09-01T12:50:29.702Z,16.50
2022-09-01T12:53:02.050Z,16.44
2022-09-01T12:55:49.019Z,16.58
2022-09-01T12:58:21.608Z,16.55
2022-09-01T13:00:58.580Z,16.53
2022-09-01T13:03:27.750Z,16.54
2022-09-01T13:05:59.107Z,16.58
2022-09-01T13:08:30.366Z,16.48
2022-09-01T13:11:03.410Z,16.71
2022-09-01T13:13:31.101Z,16.57
2022-09-01T13:16:12.933Z,16.78
2022-09-01T13:21:32.267Z,16.94
2022-09-01T13:23:59.619Z,16.87
2022-09-01T13:26:30.852Z,16.95
2022-09-01T13:28:59.069Z,16.97
2022-09-01T13:31:29.941Z,16.86
2022-09-01T13:34:22.394Z,16.69
2022-09-01T13:36:51.276Z,16.53
2022-09-01T13:39:20.900Z,16.67
2022-09-01T13:41:49.617Z,16.69
2022-09-01T13:44:18.692Z,16.68
2022-09-01T13:47:28.591Z,16.68
2022-09-01T13:49:42.616Z,16.80
2022-09-01T13:52:11.313Z,16.85
2022-09-01T13:54:38.851Z,16.96
2022-09-01T13:57:06.193Z,16.78
2022-09-01T13:59:33.448Z,16.64
2022-09-01T14:02:01.761Z,16.62
2022-09-01T14:04:29.357Z,16.61
2022-09-01T14:06:56.699Z,16.53
2022-09-01T14:09:26.715Z,16.59
2022-09-01T14:11:55.288Z,16.58
2022-09-01T14:14:23.604Z,16.78
2022-09-01T14:16:51.328Z,16.88
2022-09-01T14:19:19.023Z,16.72
2022-09-01T14:21:47.391Z,16.80
2022-09-01T14:24:16.618Z,16.82
2022-09-01T14:26:44.145Z,16.77
2022-09-01T14:29:11.977Z,16.70
2022-09-01T14:31:39.661Z,16.79
2022-09-01T14:34:06.929Z,16.94
2022-09-01T14:36:34.252Z,16.99
2022-09-01T14:39:01.954Z,16.96
2022-09-01T14:41:29.510Z,16.83
2022-09-01T14:44:03.093Z,16.85
2022-09-01T14:46:34.451Z,17.00
2022-09-01T14:49:03.442Z,16.95
2022-09-01T14:54:19.399Z,16.88
2022-09-01T14:59:36.342Z,16.47
2022-09-01T15:02:04.711Z,16.35
2022-09-01T15:04:32.208Z,16.38
2022-09-01T15:07:00.333Z,16.28
2022-09-01T15:09:27.537Z,16.27
2022-09-01T15:11:54.753Z,16.28
2022-09-01T15:14:22.172Z,16.38
2022-09-01T15:16:49.511Z,16.42
2022-09-01T15:19:17.211Z,16.17
2022-09-01T15:21:46.676Z,16.44
2022-09-01T15:24:13.997Z,16.16
2022-09-01T15:26:41.344Z,16.28
2022-09-01T15:29:13.241Z,16.09
2022-09-01T15:31:40.647Z,16.03
2022-09-01T15:34:08.526Z,16.07
2022-09-01T15:36:40.074Z,16.04
2022-09-01T15:39:09.169Z,16.12
2022-09-01T15:41:37.518Z,16.00
2022-09-01T15:44:07.051Z,15.88
2022-09-01T15:46:36.216Z,15.98
2022-09-01T15:49:06.651Z,15.70
2022-09-01T15:51:36.155Z,15.79
2022-09-01T15:54:16.107Z,15.72
2022-09-01T15:56:44.461Z,15.92
2022-09-01T15:59:12.413Z,15.94
2022-09-01T16:01:46.140Z,15.87
2022-09-01T16:04:19.949Z,16.01
2022-09-01T16:06:49.654Z,16.07
2022-09-01T16:09:21.362Z,16.21
2022-09-01T16:11:48.602Z,16.23
2022-09-01T16:14:16.210Z,16.33
2022-09-01T16:17:21.064Z,16.43
2022-09-01T16:19:57.036Z,16.49
2022-09-01T16:22:31.628Z,16.45
2022-09-01T16:25:02.213Z,16.33
2022-09-01T16:27:39.074Z,16.09
2022-09-01T16:30:08.235Z,15.95
2022-09-01T16:32:39.121Z,15.86
2022-09-01T16:35:07.063Z,15.69
2022-09-01T16:38:15.689Z,15.67
2022-09-01T16:41:00.664Z,15.47
2022-09-01T16:43:35.957Z,15.52
2022-09-01T16:46:30.301Z,15.58
2022-09-01T16:49:28.081Z,15.66
2022-09-01T16:52:13.530Z,15.79
2022-09-01T16:55:02.320Z,15.73
2022-09-01T16:57:47.065Z,15.63
2022-09-01T17:00:18.730Z,15.81
2022-09-01T17:03:17.182Z,15.90
2022-09-01T17:06:02.582Z,15.96
2022-09-01T17:08:48.316Z,15.98
2022-09-01T17:11:21.685Z,15.89
2022-09-01T17:13:52.222Z,15.77
2022-09-01T17:16:29.788Z,15.75
2022-09-01T17:19:04.950Z,15.73
2022-09-01T17:21:42.142Z,15.71
2022-09-01T17:24:32.052Z,15.52
2022-09-01T17:27:07.794Z,15.33
2022-09-01T17:30:06.378Z,15.31
2022-09-01T17:32:55.567Z,15.22
2022-09-01T17:35:35.935Z,15.15
2022-09-01T17:38:18.627Z,15.11
2022-09-01T17:41:23.295Z,15.01
2022-09-01T17:44:09.250Z,14.85
2022-09-01T17:46:44.628Z,14.62
2022-09-01T17:49:41.702Z,14.58
2022-09-01T17:52:40.087Z,14.56
2022-09-01T17:55:38.291Z,14.37
2022-09-01T17:58:17.631Z,14.20
2022-09-01T18:01:00.836Z,14.29
2022-09-01T18:03:48.055Z,14.30
2022-09-01T18:06:36.654Z,14.23
2022-09-01T18:09:05.375Z,14.14
2022-09-01T18:11:50.194Z,14.18
2022-09-01T18:14:20.759Z,14.02
2022-09-01T18:17:26.466Z,13.89
2022-09-01T18:20:04.930Z,13.78
2022-09-01T18:22:41.016Z,13.55
2022-09-01T18:25:16.739Z,13.32
2022-09-01T18:27:46.818Z,13.21
2022-09-01T18:30:36.346Z,13.13
2022-09-01T18:33:30.251Z,13.05
2022-09-01T18:36:03.364Z,13.13
2022-09-01T18:39:06.808Z,13.08
2022-09-01T18:41:48.849Z,13.20
2022-09-01T18:44:43.429Z,13.12
2022-09-01T18:47:13.632Z,12.98
2022-09-01T18:49:53.220Z,12.97
2022-09-01T18:52:35.646Z,12.91
2022-09-01T18:55:20.222Z,12.86
2022-09-01T18:57:53.211Z,12.83
2022-09-01T19:00:30.681Z,12.76
2022-09-01T19:03:25.178Z,12.81
2022-09-01T19:06:19.139Z,12.82
2022-09-01T19:08:46.556Z,12.79
2022-09-01T19:11:13.750Z,12.80
2022-09-01T19:13:41.005Z,12.78
2022-09-01T19:16:47.362Z,12.82
2022-09-01T19:19:40.912Z,12.90
2022-09-01T19:22:14.799Z,12.90
2022-09-01T19:24:47.441Z,12.90
2022-09-01T19:27:20.118Z,12.84
2022-09-01T19:29:53.177Z,12.72
2022-09-01T19:32:23.568Z,12.71
2022-09-01T19:34:57.767Z,12.64
2022-09-01T19:37:26.051Z,12.56
2022-09-01T19:39:54.359Z,12.51
2022-09-01T19:42:48.125Z,12.52
2022-09-01T19:45:19.841Z,12.47
2022-09-01T19:48:24.189Z,12.43
2022-09-01T19:51:13.233Z,12.53
2022-09-01T19:54:03.338Z,12.37
2022-09-01T19:56:39.821Z,12.34
2022-09-01T19:59:19.392Z,12.23
2022-09-01T20:01:58.169Z,12.11
2022-09-01T20:04:47.280Z,12.02
2022-09-01T20:07:46.052Z,11.95
2022-09-01T20:10:26.857Z,11.90
2022-09-01T20:13:02.493Z,11.83
2022-09-01T20:15:45.035Z,11.82
2022-09-01T20:18:29.790Z,11.81
2022-09-01T20:21:02.812Z,11.74
2022-09-01T20:23:57.158Z,11.72
2022-09-01T20:27:00.401Z,11.65
2022-09-01T20:29:55.874Z,11.57
2022-09-01T20:32:30.496Z,11.71
2022-09-01T20:35:03.274Z,11.62
2022-09-01T20:37:36.797Z,11.52
2022-09-01T20:40:24.553Z,11.57
2022-09-01T20:43:22.454Z,11.53
2022-09-01T20:45:50.774Z,11.48
2022-09-01T20:48:26.876Z,11.56
2022-09-01T20:51:15.125Z,11.62
2022-09-01T20:54:17.729Z,11.69
2022-09-01T20:57:06.357Z,11.60
2022-09-01T20:59:33.704Z,11.44
2022-09-01T21:02:05.008Z,11.49
2022-09-01T21:04:32.280Z,11.43
2022-09-01T21:07:08.136Z,11.28
2022-09-01T21:09:53.078Z,11.20
2022-09-01T21:12:43.484Z,10.99
2022-09-01T21:15:42.133Z,11.06
2022-09-01T21:18:43.011Z,11.11
2022-09-01T21:22:02.590Z,11.09
2022-09-01T21:24:29.893Z,11.06
2022-09-01T21:26:59.666Z,11.08
2022-09-01T21:29:36.037Z,10.98
2022-09-01T21:32:03.606Z,10.93
2022-09-01T21:34:30.879Z,10.91
2022-09-01T21:36:58.163Z,10.88
2022-09-01T21:39:25.660Z,10.88
2022-09-01T21:41:53.268Z,10.77
2022-09-01T21:44:21.439Z,10.71
2022-09-01T21:46:49.400Z,10.79
2022-09-01T21:49:17.545Z,10.70
2022-09-01T21:51:45.145Z,10.75
2022-09-01T21:54:12.892Z,10.73
2022-09-01T21:56:40.094Z,10.60
2022-09-01T21:59:07.360Z,10.59
2022-09-01T22:01:35.651Z,10.61
2022-09-01T22:04:04.668Z,10.56
2022-09-01T22:06:32.141Z,10.55
2022-09-01T22:09:01.669Z,10.60
2022-09-01T22:11:29.671Z,10.80
2022-09-01T22:13:58.971Z,10.79
2022-09-01T22:16:27.121Z,10.73
2022-09-01T22:18:54.379Z,10.72
2022-09-01T22:21:21.644Z,10.62
2022-09-01T22:23:49.169Z,10.59
2022-09-01T22:26:35.602Z,10.60
2022-09-01T22:29:06.186Z,10.54
2022-09-01T22:31:36.783Z,10.51
2022-09-01T22:34:05.617Z,10.54
2022-09-01T22:36:36.470Z,10.46
2022-09-01T22:39:05.522Z,10.51
2022-09-01T22:41:33.772Z,10.60
2022-09-01T22:44:02.653Z,10.87
2022-09-01T22:46:31.266Z,10.95
2022-09-01T22:49:00.312Z,10.91
2022-09-01T22:51:28.128Z,11.05
2022-09-01T22:53:55.833Z,11.18
2022-09-01T22:56:33.581Z,11.21
2022-09-01T22:59:02.970Z,11.27
2022-09-01T23:01:35.242Z,11.12
2022-09-01T23:04:05.065Z,11.21
2022-09-01T23:06:34.613Z,11.20
2022-09-01T23:09:03.471Z,11.31
2022-09-01T23:11:30.702Z,11.32
2022-09-01T23:13:58.575Z,11.31
2022-09-01T23:16:26.357Z,11.26
2022-09-01T23:18:54.410Z,11.21
2022-09-01T23:21:26.337Z,11.21
2022-09-01T23:23:58.269Z,11.32
2022-09-01T23:26:27.875Z,11.57
2022-09-01T23:28:55.663Z,11.62
2022-09-01T23:31:26.506Z,11.84
2022-09-01T23:33:54.758Z,11.94
2022-09-01T23:36:25.136Z,11.95
2022-09-01T23:38:53.653Z,11.78
2022-09-01T23:41:24.356Z,11.62
2022-09-01T23:43:52.917Z,11.50
2022-09-01T23:46:24.363Z,11.39
2022-09-01T23:48:52.449Z,11.35
2022-09-01T23:51:20.520Z,11.40
2022-09-01T23:53:48.556Z,11.28
2022-09-01T23:56:19.891Z,11.20
2022-09-01T23:58:47.210Z,11.03
